sensor_id;sensor_type;location;lat;lon;timestamp;P1;durP1;ratioP1;P2;durP2;ratioP2
1128;SDS011;553;51.038;7.216;2023-06-10T00:00:23;10.50;;;8.17;;
1128;SDS011;553;51.038;7.216;2023-06-10T00:02:49;10.30;;;9.30;;
1128;SDS011;553;51.038;7.216;2023-06-10T00:05:16;10.10;;;9.20;;
1128;SDS011;553;51.038;7.216;2023-06-10T00:07:47;10.40;;;9.37;;
1128;SDS011;553;51.038;7.216;2023-06-10T00:10:14;9.50;;;8.57;;
1128;SDS011;553;51.038;7.216;2023-06-10T00:12:41;9.23;;;8.33;;
1128;SDS011;553;51.038;7.216;2023-06-10T00:15:09;11.27;;;8.80;;
1128;SDS011;553;51.038;7.216;2023-06-10T00:17:37;9.17;;;8.37;;
1128;SDS011;553;51.038;7.216;2023-06-10T00:20:09;9.80;;;8.53;;
1128;SDS011;553;51.038;7.216;2023-06-10T00:22:40;11.03;;;8.50;;
1128;SDS011;553;51.038;7.216;2023-06-10T00:25:08;9.93;;;8.67;;
1128;SDS011;553;51.038;7.216;2023-06-10T00:27:37;9.13;;;8.23;;
1128;SDS011;553;51.038;7.216;2023-06-10T00:30:04;10.17;;;9.07;;
1128;SDS011;553;51.038;7.216;2023-06-10T00:32:34;9.60;;;8.70;;
1128;SDS011;553;51.038;7.216;2023-06-10T00:35:05;9.83;;;8.93;;
1128;SDS011;553;51.038;7.216;2023-06-10T00:37:33;9.70;;;8.80;;
1128;SDS011;553;51.038;7.216;2023-06-10T00:40:04;12.17;;;9.17;;
1128;SDS011;553;51.038;7.216;2023-06-10T00:42:31;15.53;;;8.60;;
1128;SDS011;553;51.038;7.216;2023-06-10T00:44:58;9.27;;;8.23;;
1128;SDS011;553;51.038;7.216;2023-06-10T00:47:25;9.53;;;8.60;;
1128;SDS011;553;51.038;7.216;2023-06-10T00:49:52;12.97;;;9.47;;
1128;SDS011;553;51.038;7.216;2023-06-10T00:52:22;10.20;;;9.30;;
1128;SDS011;553;51.038;7.216;2023-06-10T00:54:53;8.87;;;8.00;;
1128;SDS011;553;51.038;7.216;2023-06-10T00:57:20;9.57;;;8.53;;
1128;SDS011;553;51.038;7.216;2023-06-10T00:59:48;10.27;;;8.27;;
1128;SDS011;553;51.038;7.216;2023-06-10T01:02:15;10.10;;;9.20;;
1128;SDS011;553;51.038;7.216;2023-06-10T01:04:43;9.93;;;8.90;;
1128;SDS011;553;51.038;7.216;2023-06-10T01:07:15;9.67;;;8.67;;
1128;SDS011;553;51.038;7.216;2023-06-10T01:15:03;9.70;;;8.57;;
1128;SDS011;553;51.038;7.216;2023-06-10T01:17:31;11.00;;;8.73;;
1128;SDS011;553;51.038;7.216;2023-06-10T01:19:58;10.93;;;9.87;;
1128;SDS011;553;51.038;7.216;2023-06-10T01:22:27;11.73;;;9.30;;
1128;SDS011;553;51.038;7.216;2023-06-10T01:24:55;11.40;;;9.23;;
1128;SDS011;553;51.038;7.216;2023-06-10T01:27:26;9.37;;;8.57;;
1128;SDS011;553;51.038;7.216;2023-06-10T01:30:04;12.07;;;9.37;;
1128;SDS011;553;51.038;7.216;2023-06-10T01:32:40;10.83;;;8.87;;
1128;SDS011;553;51.038;7.216;2023-06-10T01:35:14;11.80;;;9.53;;
1128;SDS011;553;51.038;7.216;2023-06-10T01:37:43;12.40;;;9.03;;
1128;SDS011;553;51.038;7.216;2023-06-10T01:40:12;9.80;;;8.90;;
1128;SDS011;553;51.038;7.216;2023-06-10T01:42:40;9.87;;;8.80;;
1128;SDS011;553;51.038;7.216;2023-06-10T01:45:07;9.63;;;8.73;;
1128;SDS011;553;51.038;7.216;2023-06-10T01:47:35;9.97;;;9.07;;
1128;SDS011;553;51.038;7.216;2023-06-10T01:50:01;9.80;;;8.87;;
1128;SDS011;553;51.038;7.216;2023-06-10T01:52:28;10.00;;;9.00;;
1128;SDS011;553;51.038;7.216;2023-06-10T01:54:55;11.97;;;9.70;;
1128;SDS011;553;51.038;7.216;2023-06-10T01:57:22;9.53;;;8.60;;
1128;SDS011;553;51.038;7.216;2023-06-10T01:59:49;13.00;;;9.90;;
1128;SDS011;553;51.038;7.216;2023-06-10T02:02:15;10.63;;;9.50;;
1128;SDS011;553;51.038;7.216;2023-06-10T02:04:42;10.93;;;9.83;;
1128;SDS011;553;51.038;7.216;2023-06-10T02:07:09;11.30;;;9.13;;
1128;SDS011;553;51.038;7.216;2023-06-10T02:09:36;9.17;;;8.30;;
1128;SDS011;553;51.038;7.216;2023-06-10T02:12:03;10.57;;;9.10;;
1128;SDS011;553;51.038;7.216;2023-06-10T02:14:31;9.77;;;8.77;;
1128;SDS011;553;51.038;7.216;2023-06-10T02:16:59;9.60;;;8.60;;
1128;SDS011;553;51.038;7.216;2023-06-10T02:19:27;9.53;;;8.57;;
1128;SDS011;553;51.038;7.216;2023-06-10T02:21:54;9.57;;;8.67;;
1128;SDS011;553;51.038;7.216;2023-06-10T02:24:21;11.57;;;9.73;;
1128;SDS011;553;51.038;7.216;2023-06-10T02:26:48;9.70;;;8.80;;
1128;SDS011;553;51.038;7.216;2023-06-10T02:29:15;11.07;;;9.97;;
1128;SDS011;553;51.038;7.216;2023-06-10T02:31:42;10.80;;;9.60;;
1128;SDS011;553;51.038;7.216;2023-06-10T02:34:09;9.03;;;7.90;;
1128;SDS011;553;51.038;7.216;2023-06-10T02:36:36;9.83;;;8.93;;
1128;SDS011;553;51.038;7.216;2023-06-10T02:39:03;9.67;;;8.70;;
1128;SDS011;553;51.038;7.216;2023-06-10T02:41:31;9.90;;;9.00;;
1128;SDS011;553;51.038;7.216;2023-06-10T02:43:59;9.70;;;8.90;;
1128;SDS011;553;51.038;7.216;2023-06-10T02:46:26;10.50;;;7.80;;
1128;SDS011;553;51.038;7.216;2023-06-10T02:48:55;11.00;;;8.30;;
1128;SDS011;553;51.038;7.216;2023-06-10T02:51:23;8.83;;;8.03;;
1128;SDS011;553;51.038;7.216;2023-06-10T02:53:56;10.83;;;8.80;;
1128;SDS011;553;51.038;7.216;2023-06-10T02:56:23;12.73;;;9.40;;
1128;SDS011;553;51.038;7.216;2023-06-10T02:58:50;9.70;;;8.70;;
1128;SDS011;553;51.038;7.216;2023-06-10T03:01:19;9.30;;;8.30;;
1128;SDS011;553;51.038;7.216;2023-06-10T03:03:56;9.37;;;8.47;;
1128;SDS011;553;51.038;7.216;2023-06-10T03:06:23;9.77;;;8.87;;
1128;SDS011;553;51.038;7.216;2023-06-10T03:08:52;13.13;;;8.73;;
1128;SDS011;553;51.038;7.216;2023-06-10T03:11:19;9.50;;;8.60;;
1128;SDS011;553;51.038;7.216;2023-06-10T03:13:47;9.13;;;8.20;;
1128;SDS011;553;51.038;7.216;2023-06-10T03:16:16;11.10;;;8.60;;
1128;SDS011;553;51.038;7.216;2023-06-10T03:18:44;9.73;;;8.73;;
1128;SDS011;553;51.038;7.216;2023-06-10T03:21:11;8.60;;;7.90;;
1128;SDS011;553;51.038;7.216;2023-06-10T03:23:38;8.53;;;7.73;;
1128;SDS011;553;51.038;7.216;2023-06-10T03:26:05;8.63;;;7.83;;
1128;SDS011;553;51.038;7.216;2023-06-10T03:28:33;9.13;;;8.07;;
1128;SDS011;553;51.038;7.216;2023-06-10T03:31:01;9.10;;;8.20;;
1128;SDS011;553;51.038;7.216;2023-06-10T03:33:30;8.67;;;7.77;;
1128;SDS011;553;51.038;7.216;2023-06-10T03:35:57;8.30;;;7.53;;
1128;SDS011;553;51.038;7.216;2023-06-10T03:38:24;9.53;;;7.90;;
1128;SDS011;553;51.038;7.216;2023-06-10T03:40:52;8.13;;;7.40;;
1128;SDS011;553;51.038;7.216;2023-06-10T03:43:19;8.50;;;7.70;;
1128;SDS011;553;51.038;7.216;2023-06-10T03:45:46;9.13;;;8.07;;
1128;SDS011;553;51.038;7.216;2023-06-10T03:48:16;7.97;;;7.17;;
1128;SDS011;553;51.038;7.216;2023-06-10T03:50:47;8.03;;;7.30;;
1128;SDS011;553;51.038;7.216;2023-06-10T03:53:17;8.20;;;7.50;;
1128;SDS011;553;51.038;7.216;2023-06-10T03:55:44;7.97;;;7.17;;
1128;SDS011;553;51.038;7.216;2023-06-10T03:58:13;10.10;;;7.97;;
1128;SDS011;553;51.038;7.216;2023-06-10T04:00:41;9.90;;;7.60;;
1128;SDS011;553;51.038;7.216;2023-06-10T04:03:08;10.07;;;6.63;;
1128;SDS011;553;51.038;7.216;2023-06-10T04:05:44;7.70;;;7.00;;
1128;SDS011;553;51.038;7.216;2023-06-10T04:08:11;8.10;;;7.00;;
1128;SDS011;553;51.038;7.216;2023-06-10T04:10:38;8.10;;;6.57;;
1128;SDS011;553;51.038;7.216;2023-06-10T04:13:04;7.93;;;6.27;;
1128;SDS011;553;51.038;7.216;2023-06-10T04:15:37;7.30;;;6.60;;
1128;SDS011;553;51.038;7.216;2023-06-10T04:18:09;7.70;;;6.90;;
1128;SDS011;553;51.038;7.216;2023-06-10T04:20:36;7.60;;;6.80;;
1128;SDS011;553;51.038;7.216;2023-06-10T04:23:02;6.70;;;5.97;;
1128;SDS011;553;51.038;7.216;2023-06-10T04:25:30;7.87;;;6.80;;
1128;SDS011;553;51.038;7.216;2023-06-10T04:27:57;8.30;;;6.27;;
1128;SDS011;553;51.038;7.216;2023-06-10T04:30:24;8.70;;;7.23;;
1128;SDS011;553;51.038;7.216;2023-06-10T04:32:51;6.87;;;5.80;;
1128;SDS011;553;51.038;7.216;2023-06-10T04:35:18;8.17;;;6.23;;
1128;SDS011;553;51.038;7.216;2023-06-10T04:37:47;7.90;;;6.60;;
1128;SDS011;553;51.038;7.216;2023-06-10T04:40:14;8.10;;;6.70;;
1128;SDS011;553;51.038;7.216;2023-06-10T04:42:42;11.43;;;6.90;;
1128;SDS011;553;51.038;7.216;2023-06-10T04:45:09;8.20;;;5.50;;
1128;SDS011;553;51.038;7.216;2023-06-10T04:47:37;7.57;;;5.80;;
1128;SDS011;553;51.038;7.216;2023-06-10T04:50:04;6.83;;;6.23;;
1128;SDS011;553;51.038;7.216;2023-06-10T04:52:32;7.03;;;6.33;;
1128;SDS011;553;51.038;7.216;2023-06-10T04:54:59;6.10;;;5.60;;
1128;SDS011;553;51.038;7.216;2023-06-10T04:57:26;9.17;;;5.97;;
1128;SDS011;553;51.038;7.216;2023-06-10T04:59:53;10.50;;;6.30;;
1128;SDS011;553;51.038;7.216;2023-06-10T05:02:20;7.10;;;5.80;;
1128;SDS011;553;51.038;7.216;2023-06-10T05:04:47;7.30;;;6.27;;
1128;SDS011;553;51.038;7.216;2023-06-10T05:07:13;7.27;;;6.50;;
1128;SDS011;553;51.038;7.216;2023-06-10T05:09:40;6.30;;;5.70;;
1128;SDS011;553;51.038;7.216;2023-06-10T05:12:07;7.20;;;6.30;;
1128;SDS011;553;51.038;7.216;2023-06-10T05:14:35;6.43;;;5.23;;
1128;SDS011;553;51.038;7.216;2023-06-10T05:17:01;8.53;;;6.10;;
1128;SDS011;553;51.038;7.216;2023-06-10T05:19:28;8.07;;;6.13;;
1128;SDS011;553;51.038;7.216;2023-06-10T05:21:55;6.87;;;6.17;;
1128;SDS011;553;51.038;7.216;2023-06-10T05:24:22;7.23;;;5.87;;
1128;SDS011;553;51.038;7.216;2023-06-10T05:26:49;7.93;;;6.37;;
1128;SDS011;553;51.038;7.216;2023-06-10T05:29:16;7.77;;;6.03;;
1128;SDS011;553;51.038;7.216;2023-06-10T05:31:43;8.30;;;6.00;;
1128;SDS011;553;51.038;7.216;2023-06-10T05:34:10;6.67;;;6.00;;
1128;SDS011;553;51.038;7.216;2023-06-10T05:36:37;6.20;;;5.60;;
1128;SDS011;553;51.038;7.216;2023-06-10T05:39:03;6.60;;;5.53;;
1128;SDS011;553;51.038;7.216;2023-06-10T05:41:30;7.23;;;6.53;;
1128;SDS011;553;51.038;7.216;2023-06-10T05:43:57;7.37;;;6.23;;
1128;SDS011;553;51.038;7.216;2023-06-10T05:46:24;9.47;;;6.20;;
1128;SDS011;553;51.038;7.216;2023-06-10T05:48:51;5.93;;;5.30;;
1128;SDS011;553;51.038;7.216;2023-06-10T05:51:17;6.40;;;5.50;;
1128;SDS011;553;51.038;7.216;2023-06-10T05:53:44;7.40;;;6.67;;
1128;SDS011;553;51.038;7.216;2023-06-10T05:56:13;9.90;;;6.90;;
1128;SDS011;553;51.038;7.216;2023-06-10T05:58:40;8.50;;;6.10;;
1128;SDS011;553;51.038;7.216;2023-06-10T06:01:07;6.70;;;6.07;;
1128;SDS011;553;51.038;7.216;2023-06-10T06:03:34;7.80;;;6.70;;
1128;SDS011;553;51.038;7.216;2023-06-10T06:06:02;8.27;;;6.03;;
1128;SDS011;553;51.038;7.216;2023-06-10T06:08:29;7.13;;;6.10;;
1128;SDS011;553;51.038;7.216;2023-06-10T06:10:56;7.33;;;6.37;;
1128;SDS011;553;51.038;7.216;2023-06-10T06:13:24;7.50;;;6.30;;
1128;SDS011;553;51.038;7.216;2023-06-10T06:15:50;7.53;;;6.83;;
1128;SDS011;553;51.038;7.216;2023-06-10T06:18:17;7.50;;;6.80;;
1128;SDS011;553;51.038;7.216;2023-06-10T06:20:45;7.47;;;6.70;;
1128;SDS011;553;51.038;7.216;2023-06-10T06:23:11;7.90;;;7.10;;
1128;SDS011;553;51.038;7.216;2023-06-10T06:25:38;7.07;;;6.37;;
1128;SDS011;553;51.038;7.216;2023-06-10T06:28:06;7.73;;;6.63;;
1128;SDS011;553;51.038;7.216;2023-06-10T06:30:33;7.40;;;6.30;;
1128;SDS011;553;51.038;7.216;2023-06-10T06:33:00;7.80;;;7.00;;
1128;SDS011;553;51.038;7.216;2023-06-10T06:35:27;6.90;;;6.30;;
1128;SDS011;553;51.038;7.216;2023-06-10T06:37:56;7.80;;;6.50;;
1128;SDS011;553;51.038;7.216;2023-06-10T06:40:27;8.90;;;5.97;;
1128;SDS011;553;51.038;7.216;2023-06-10T06:42:53;7.17;;;6.47;;
1128;SDS011;553;51.038;7.216;2023-06-10T06:45:49;6.73;;;6.03;;
1128;SDS011;553;51.038;7.216;2023-06-10T06:48:16;7.33;;;6.73;;
1128;SDS011;553;51.038;7.216;2023-06-10T06:50:43;9.37;;;6.60;;
1128;SDS011;553;51.038;7.216;2023-06-10T06:53:10;8.10;;;6.10;;
1128;SDS011;553;51.038;7.216;2023-06-10T06:55:36;7.30;;;6.60;;
1128;SDS011;553;51.038;7.216;2023-06-10T06:58:03;7.33;;;6.60;;
1128;SDS011;553;51.038;7.216;2023-06-10T07:00:30;7.23;;;6.63;;
1128;SDS011;553;51.038;7.216;2023-06-10T07:02:58;7.73;;;6.80;;
1128;SDS011;553;51.038;7.216;2023-06-10T07:05:25;8.67;;;7.50;;
1128;SDS011;553;51.038;7.216;2023-06-10T07:07:53;7.47;;;6.67;;
1128;SDS011;553;51.038;7.216;2023-06-10T07:10:22;7.63;;;6.93;;
1128;SDS011;553;51.038;7.216;2023-06-10T07:12:53;6.90;;;6.30;;
1128;SDS011;553;51.038;7.216;2023-06-10T07:15:19;9.93;;;6.70;;
1128;SDS011;553;51.038;7.216;2023-06-10T07:17:47;7.37;;;6.67;;
1128;SDS011;553;51.038;7.216;2023-06-10T07:20:13;8.03;;;7.23;;
1128;SDS011;553;51.038;7.216;2023-06-10T07:22:41;7.37;;;6.77;;
1128;SDS011;553;51.038;7.216;2023-06-10T07:25:08;7.40;;;6.70;;
1128;SDS011;553;51.038;7.216;2023-06-10T07:27:36;9.73;;;6.90;;
1128;SDS011;553;51.038;7.216;2023-06-10T07:30:04;7.90;;;7.20;;
1128;SDS011;553;51.038;7.216;2023-06-10T07:32:33;8.60;;;7.37;;
1128;SDS011;553;51.038;7.216;2023-06-10T07:35:00;7.00;;;6.40;;
1128;SDS011;553;51.038;7.216;2023-06-10T07:37:27;7.30;;;6.60;;
1128;SDS011;553;51.038;7.216;2023-06-10T07:39:54;8.53;;;6.60;;
1128;SDS011;553;51.038;7.216;2023-06-10T07:42:22;8.20;;;7.40;;
1128;SDS011;553;51.038;7.216;2023-06-10T07:44:49;7.70;;;6.90;;
1128;SDS011;553;51.038;7.216;2023-06-10T07:47:15;7.60;;;6.90;;
1128;SDS011;553;51.038;7.216;2023-06-10T07:49:42;9.33;;;8.30;;
1128;SDS011;553;51.038;7.216;2023-06-10T07:52:09;7.70;;;6.60;;
1128;SDS011;553;51.038;7.216;2023-06-10T07:54:35;7.77;;;7.07;;
1128;SDS011;553;51.038;7.216;2023-06-10T07:57:02;8.03;;;7.20;;
1128;SDS011;553;51.038;7.216;2023-06-10T07:59:29;10.40;;;7.83;;
1128;SDS011;553;51.038;7.216;2023-06-10T08:01:56;7.60;;;7.00;;
1128;SDS011;553;51.038;7.216;2023-06-10T08:04:23;9.93;;;7.37;;
1128;SDS011;553;51.038;7.216;2023-06-10T08:06:50;9.63;;;7.50;;
1128;SDS011;553;51.038;7.216;2023-06-10T08:09:17;7.97;;;7.00;;
1128;SDS011;553;51.038;7.216;2023-06-10T08:11:46;8.23;;;7.40;;
1128;SDS011;553;51.038;7.216;2023-06-10T08:14:13;8.20;;;7.40;;
1128;SDS011;553;51.038;7.216;2023-06-10T08:16:40;10.03;;;7.47;;
1128;SDS011;553;51.038;7.216;2023-06-10T08:19:09;8.60;;;7.80;;
1128;SDS011;553;51.038;7.216;2023-06-10T08:21:36;8.33;;;7.60;;
1128;SDS011;553;51.038;7.216;2023-06-10T08:24:06;7.90;;;7.07;;
1128;SDS011;553;51.038;7.216;2023-06-10T08:26:33;8.93;;;7.90;;
1128;SDS011;553;51.038;7.216;2023-06-10T08:29:00;8.33;;;7.10;;
1128;SDS011;553;51.038;7.216;2023-06-10T08:31:27;7.70;;;7.10;;
1128;SDS011;553;51.038;7.216;2023-06-10T08:33:53;8.63;;;7.90;;
1128;SDS011;553;51.038;7.216;2023-06-10T08:36:20;8.10;;;7.40;;
1128;SDS011;553;51.038;7.216;2023-06-10T08:38:47;8.87;;;8.07;;
1128;SDS011;553;51.038;7.216;2023-06-10T08:41:14;8.60;;;7.57;;
1128;SDS011;553;51.038;7.216;2023-06-10T08:43:45;7.40;;;6.80;;
1128;SDS011;553;51.038;7.216;2023-06-10T08:46:16;10.73;;;8.00;;
1128;SDS011;553;51.038;7.216;2023-06-10T08:48:43;8.87;;;7.97;;
1128;SDS011;553;51.038;7.216;2023-06-10T08:51:11;8.50;;;7.77;;
1128;SDS011;553;51.038;7.216;2023-06-10T08:53:41;8.53;;;7.73;;
1128;SDS011;553;51.038;7.216;2023-06-10T08:56:26;8.03;;;7.23;;
1128;SDS011;553;51.038;7.216;2023-06-10T08:58:56;11.43;;;8.10;;
1128;SDS011;553;51.038;7.216;2023-06-10T09:01:24;10.40;;;8.23;;
1128;SDS011;553;51.038;7.216;2023-06-10T09:03:52;8.43;;;7.70;;
1128;SDS011;553;51.038;7.216;2023-06-10T09:06:20;9.00;;;8.10;;
1128;SDS011;553;51.038;7.216;2023-06-10T09:08:48;9.13;;;7.83;;
1128;SDS011;553;51.038;7.216;2023-06-10T09:11:14;8.20;;;7.30;;
1128;SDS011;553;51.038;7.216;2023-06-10T09:13:41;8.53;;;7.73;;
1128;SDS011;553;51.038;7.216;2023-06-10T09:16:08;8.80;;;7.90;;
1128;SDS011;553;51.038;7.216;2023-06-10T09:18:37;7.10;;;6.50;;
1128;SDS011;553;51.038;7.216;2023-06-10T09:21:04;8.13;;;7.43;;
1128;SDS011;553;51.038;7.216;2023-06-10T09:23:31;8.20;;;7.50;;
1128;SDS011;553;51.038;7.216;2023-06-10T09:25:58;8.30;;;7.50;;
1128;SDS011;553;51.038;7.216;2023-06-10T09:28:25;8.77;;;8.07;;
1128;SDS011;553;51.038;7.216;2023-06-10T09:31:02;9.10;;;8.20;;
1128;SDS011;553;51.038;7.216;2023-06-10T09:33:30;10.23;;;8.13;;
1128;SDS011;553;51.038;7.216;2023-06-10T09:35:57;8.40;;;7.60;;
1128;SDS011;553;51.038;7.216;2023-06-10T09:38:31;8.97;;;8.07;;
1128;SDS011;553;51.038;7.216;2023-06-10T09:40:59;8.30;;;7.53;;
1128;SDS011;553;51.038;7.216;2023-06-10T09:43:39;11.43;;;8.47;;
1128;SDS011;553;51.038;7.216;2023-06-10T09:46:07;10.73;;;7.43;;
1128;SDS011;553;51.038;7.216;2023-06-10T09:48:44;8.83;;;7.93;;
1128;SDS011;553;51.038;7.216;2023-06-10T09:51:13;8.43;;;7.73;;
1128;SDS011;553;51.038;7.216;2023-06-10T09:53:40;8.63;;;7.87;;
1128;SDS011;553;51.038;7.216;2023-06-10T09:56:07;8.23;;;7.53;;
1128;SDS011;553;51.038;7.216;2023-06-10T09:58:39;8.47;;;7.67;;
1128;SDS011;553;51.038;7.216;2023-06-10T10:01:10;10.40;;;8.00;;
1128;SDS011;553;51.038;7.216;2023-06-10T10:03:44;9.13;;;7.80;;
1128;SDS011;553;51.038;7.216;2023-06-10T10:06:18;9.13;;;8.03;;
1128;SDS011;553;51.038;7.216;2023-06-10T10:08:47;8.93;;;7.10;;
1128;SDS011;553;51.038;7.216;2023-06-10T10:11:19;8.70;;;7.90;;
1128;SDS011;553;51.038;7.216;2023-06-10T10:13:49;8.53;;;7.70;;
1128;SDS011;553;51.038;7.216;2023-06-10T10:16:17;8.40;;;7.70;;
1128;SDS011;553;51.038;7.216;2023-06-10T10:18:57;7.93;;;7.13;;
1128;SDS011;553;51.038;7.216;2023-06-10T10:21:31;8.23;;;7.40;;
1128;SDS011;553;51.038;7.216;2023-06-10T10:24:05;8.20;;;7.43;;
1128;SDS011;553;51.038;7.216;2023-06-10T10:26:38;8.70;;;7.90;;
1128;SDS011;553;51.038;7.216;2023-06-10T10:31:45;8.00;;;7.40;;
1128;SDS011;553;51.038;7.216;2023-06-10T10:34:16;8.60;;;7.90;;
1128;SDS011;553;51.038;7.216;2023-06-10T10:36:49;9.17;;;8.17;;
1128;SDS011;553;51.038;7.216;2023-06-10T10:39:17;8.43;;;7.63;;
1128;SDS011;553;51.038;7.216;2023-06-10T10:41:45;8.93;;;8.07;;
1128;SDS011;553;51.038;7.216;2023-06-10T10:44:12;9.30;;;8.30;;
1128;SDS011;553;51.038;7.216;2023-06-10T10:46:43;8.80;;;7.90;;
1128;SDS011;553;51.038;7.216;2023-06-10T10:49:11;8.83;;;8.03;;
1128;SDS011;553;51.038;7.216;2023-06-10T10:51:54;8.10;;;7.50;;
1128;SDS011;553;51.038;7.216;2023-06-10T10:54:43;8.73;;;7.87;;
1128;SDS011;553;51.038;7.216;2023-06-10T10:57:16;8.77;;;7.87;;
1128;SDS011;553;51.038;7.216;2023-06-10T10:59:51;8.53;;;7.73;;
1128;SDS011;553;51.038;7.216;2023-06-10T11:02:40;10.53;;;9.47;;
1128;SDS011;553;51.038;7.216;2023-06-10T11:05:10;10.40;;;8.57;;
1128;SDS011;553;51.038;7.216;2023-06-10T11:07:40;9.00;;;8.20;;
1128;SDS011;553;51.038;7.216;2023-06-10T11:10:20;9.67;;;8.80;;
1128;SDS011;553;51.038;7.216;2023-06-10T11:12:57;8.73;;;7.83;;
1128;SDS011;553;51.038;7.216;2023-06-10T11:15:26;9.50;;;7.60;;
1128;SDS011;553;51.038;7.216;2023-06-10T11:18:06;8.37;;;7.67;;
1128;SDS011;553;51.038;7.216;2023-06-10T11:31:20;8.70;;;8.00;;
1128;SDS011;553;51.038;7.216;2023-06-10T11:33:55;9.67;;;8.77;;
1128;SDS011;553;51.038;7.216;2023-06-10T11:36:24;8.70;;;7.60;;
1128;SDS011;553;51.038;7.216;2023-06-10T11:38:55;9.60;;;8.60;;
1128;SDS011;553;51.038;7.216;2023-06-10T11:41:29;9.03;;;8.33;;
1128;SDS011;553;51.038;7.216;2023-06-10T11:44:00;9.63;;;7.73;;
1128;SDS011;553;51.038;7.216;2023-06-10T11:46:29;7.83;;;7.13;;
1128;SDS011;553;51.038;7.216;2023-06-10T11:48:56;9.50;;;8.10;;
1128;SDS011;553;51.038;7.216;2023-06-10T11:51:25;7.90;;;7.30;;
1128;SDS011;553;51.038;7.216;2023-06-10T11:53:53;8.27;;;7.30;;
1128;SDS011;553;51.038;7.216;2023-06-10T11:56:24;9.03;;;8.13;;
1128;SDS011;553;51.038;7.216;2023-06-10T11:58:56;10.73;;;7.60;;
1128;SDS011;553;51.038;7.216;2023-06-10T12:01:25;9.37;;;8.57;;
1128;SDS011;553;51.038;7.216;2023-06-10T12:03:59;8.73;;;7.97;;
1128;SDS011;553;51.038;7.216;2023-06-10T12:06:45;8.50;;;7.77;;
1128;SDS011;553;51.038;7.216;2023-06-10T12:11:55;8.83;;;8.00;;
1128;SDS011;553;51.038;7.216;2023-06-10T12:17:23;8.97;;;8.10;;
1128;SDS011;553;51.038;7.216;2023-06-10T12:19:58;8.07;;;7.37;;
1128;SDS011;553;51.038;7.216;2023-06-10T12:22:26;9.33;;;7.37;;
1128;SDS011;553;51.038;7.216;2023-06-10T12:24:59;8.70;;;7.90;;
1128;SDS011;553;51.038;7.216;2023-06-10T12:27:30;8.43;;;7.60;;
1128;SDS011;553;51.038;7.216;2023-06-10T12:29:58;7.93;;;7.13;;
1128;SDS011;553;51.038;7.216;2023-06-10T12:32:35;8.63;;;7.93;;
1128;SDS011;553;51.038;7.216;2023-06-10T12:35:05;8.20;;;7.40;;
1128;SDS011;553;51.038;7.216;2023-06-10T12:37:33;8.30;;;7.67;;
1128;SDS011;553;51.038;7.216;2023-06-10T12:40:04;8.30;;;7.60;;
1128;SDS011;553;51.038;7.216;2023-06-10T12:42:37;7.83;;;7.13;;
1128;SDS011;553;51.038;7.216;2023-06-10T12:45:05;8.00;;;7.30;;
1128;SDS011;553;51.038;7.216;2023-06-10T12:47:34;8.13;;;7.33;;
1128;SDS011;553;51.038;7.216;2023-06-10T12:50:07;8.70;;;7.70;;
1128;SDS011;553;51.038;7.216;2023-06-10T12:52:35;10.23;;;7.60;;
1128;SDS011;553;51.038;7.216;2023-06-10T12:55:01;8.63;;;6.70;;
1128;SDS011;553;51.038;7.216;2023-06-10T12:57:30;7.77;;;7.10;;
1128;SDS011;553;51.038;7.216;2023-06-10T12:59:57;7.77;;;7.00;;
1128;SDS011;553;51.038;7.216;2023-06-10T13:02:30;7.10;;;6.50;;
1128;SDS011;553;51.038;7.216;2023-06-10T13:04:58;7.30;;;6.50;;
1128;SDS011;553;51.038;7.216;2023-06-10T13:07:25;8.37;;;6.60;;
1128;SDS011;553;51.038;7.216;2023-06-10T13:09:52;7.47;;;6.23;;
1128;SDS011;553;51.038;7.216;2023-06-10T13:12:19;7.50;;;6.60;;
1128;SDS011;553;51.038;7.216;2023-06-10T13:15:03;7.80;;;6.20;;
1128;SDS011;553;51.038;7.216;2023-06-10T13:17:31;7.87;;;6.70;;
1128;SDS011;553;51.038;7.216;2023-06-10T13:19:58;7.97;;;7.17;;
1128;SDS011;553;51.038;7.216;2023-06-10T13:22:24;8.47;;;6.20;;
1128;SDS011;553;51.038;7.216;2023-06-10T13:24:52;6.10;;;5.37;;
1128;SDS011;553;51.038;7.216;2023-06-10T13:27:19;6.83;;;6.13;;
1128;SDS011;553;51.038;7.216;2023-06-10T13:29:46;7.90;;;6.20;;
1128;SDS011;553;51.038;7.216;2023-06-10T13:32:13;7.50;;;6.70;;
1128;SDS011;553;51.038;7.216;2023-06-10T13:34:40;8.47;;;6.77;;
1128;SDS011;553;51.038;7.216;2023-06-10T13:37:06;6.63;;;6.03;;
1128;SDS011;553;51.038;7.216;2023-06-10T13:39:33;7.10;;;6.50;;
1128;SDS011;553;51.038;7.216;2023-06-10T13:42:00;8.77;;;7.90;;
1128;SDS011;553;51.038;7.216;2023-06-10T13:44:27;6.87;;;6.07;;
1128;SDS011;553;51.038;7.216;2023-06-10T13:46:57;7.50;;;6.63;;
1128;SDS011;553;51.038;7.216;2023-06-10T13:49:23;10.13;;;6.87;;
1128;SDS011;553;51.038;7.216;2023-06-10T13:51:50;9.23;;;6.20;;
1128;SDS011;553;51.038;7.216;2023-06-10T13:54:17;7.90;;;6.17;;
1128;SDS011;553;51.038;7.216;2023-06-10T13:56:44;7.27;;;6.63;;
1128;SDS011;553;51.038;7.216;2023-06-10T13:59:11;8.13;;;7.30;;
1128;SDS011;553;51.038;7.216;2023-06-10T14:01:37;7.20;;;6.50;;
1128;SDS011;553;51.038;7.216;2023-06-10T14:04:05;6.50;;;5.80;;
1128;SDS011;553;51.038;7.216;2023-06-10T14:06:33;7.20;;;6.50;;
1128;SDS011;553;51.038;7.216;2023-06-10T14:09:00;7.00;;;6.40;;
1128;SDS011;553;51.038;7.216;2023-06-10T14:11:26;7.90;;;6.80;;
1128;SDS011;553;51.038;7.216;2023-06-10T14:13:53;6.27;;;5.70;;
1128;SDS011;553;51.038;7.216;2023-06-10T14:16:22;7.20;;;6.60;;
1128;SDS011;553;51.038;7.216;2023-06-10T14:18:49;9.10;;;6.33;;
1128;SDS011;553;51.038;7.216;2023-06-10T14:21:19;6.73;;;5.90;;
1128;SDS011;553;51.038;7.216;2023-06-10T14:23:46;7.30;;;6.60;;
1128;SDS011;553;51.038;7.216;2023-06-10T14:26:15;7.37;;;6.77;;
1128;SDS011;553;51.038;7.216;2023-06-10T14:28:42;7.20;;;6.50;;
1128;SDS011;553;51.038;7.216;2023-06-10T14:31:08;6.53;;;5.93;;
1128;SDS011;553;51.038;7.216;2023-06-10T14:33:35;6.50;;;5.80;;
1128;SDS011;553;51.038;7.216;2023-06-10T14:36:03;6.40;;;5.90;;
1128;SDS011;553;51.038;7.216;2023-06-10T14:38:29;7.33;;;6.07;;
1128;SDS011;553;51.038;7.216;2023-06-10T14:40:56;6.57;;;5.87;;
1128;SDS011;553;51.038;7.216;2023-06-10T14:43:23;6.53;;;5.93;;
1128;SDS011;553;51.038;7.216;2023-06-10T14:45:49;6.50;;;5.73;;
1128;SDS011;553;51.038;7.216;2023-06-10T14:48:17;6.70;;;6.10;;
1128;SDS011;553;51.038;7.216;2023-06-10T14:50:44;9.10;;;6.00;;
1128;SDS011;553;51.038;7.216;2023-06-10T14:53:13;11.23;;;6.80;;
1128;SDS011;553;51.038;7.216;2023-06-10T14:55:39;6.80;;;6.20;;
1128;SDS011;553;51.038;7.216;2023-06-10T14:58:06;6.23;;;5.70;;
1128;SDS011;553;51.038;7.216;2023-06-10T15:00:33;7.03;;;6.23;;
1128;SDS011;553;51.038;7.216;2023-06-10T15:02:59;6.57;;;5.97;;
1128;SDS011;553;51.038;7.216;2023-06-10T15:05:26;6.90;;;6.27;;
1128;SDS011;553;51.038;7.216;2023-06-10T15:07:53;5.93;;;5.43;;
1128;SDS011;553;51.038;7.216;2023-06-10T15:10:20;10.63;;;6.33;;
1128;SDS011;553;51.038;7.216;2023-06-10T15:12:49;7.00;;;6.03;;
1128;SDS011;553;51.038;7.216;2023-06-10T15:15:22;6.03;;;5.43;;
1128;SDS011;553;51.038;7.216;2023-06-10T15:17:49;6.63;;;5.77;;
1128;SDS011;553;51.038;7.216;2023-06-10T15:20:16;6.70;;;6.00;;
1128;SDS011;553;51.038;7.216;2023-06-10T15:22:43;5.47;;;5.07;;
1128;SDS011;553;51.038;7.216;2023-06-10T15:25:10;6.10;;;5.53;;
1128;SDS011;553;51.038;7.216;2023-06-10T15:27:40;5.17;;;4.50;;
1128;SDS011;553;51.038;7.216;2023-06-10T15:30:06;5.97;;;5.47;;
1128;SDS011;553;51.038;7.216;2023-06-10T15:32:33;9.07;;;5.80;;
1128;SDS011;553;51.038;7.216;2023-06-10T15:35:00;5.10;;;4.43;;
1128;SDS011;553;51.038;7.216;2023-06-10T15:37:27;6.50;;;5.47;;
1128;SDS011;553;51.038;7.216;2023-06-10T15:39:54;6.57;;;5.90;;
1128;SDS011;553;51.038;7.216;2023-06-10T15:42:21;8.87;;;5.40;;
1128;SDS011;553;51.038;7.216;2023-06-10T15:44:49;10.20;;;5.73;;
1128;SDS011;553;51.038;7.216;2023-06-10T15:47:19;8.23;;;5.30;;
1128;SDS011;553;51.038;7.216;2023-06-10T15:49:46;6.00;;;5.50;;
1128;SDS011;553;51.038;7.216;2023-06-10T15:52:13;6.27;;;5.77;;
1128;SDS011;553;51.038;7.216;2023-06-10T15:54:40;6.13;;;5.63;;
1128;SDS011;553;51.038;7.216;2023-06-10T15:57:07;5.67;;;5.10;;
1128;SDS011;553;51.038;7.216;2023-06-10T15:59:34;6.10;;;5.60;;